»·PEaware :: N208GG KSNA-KSNA

N208GG :: KSNA-KSNA

FLIGHT INFORMATION

Flight Status: Arrived
Operator: Privately registered:
United States
More flights under this callsign
Pilot: Hunter M. (19355)
Aircraft: CESSNA 172 SKYHAWK
(C172)
More flights by this aircraft type
Origin: KSNA John Wayne-Orange Co
United States
Destination: KSNA John Wayne-Orange Co
United States
More flights between these airports :: More routes between these airports
Route: +SLI
File this flight plan on PilotEdge
Remarks: practice approaches
Altitude:
(Current/Filed)
3,500ft
Speed:
(Current/Filed)
118kts
Departed: 25-Mar-20 12:33 PM
Arrived: 25-Mar-20 01:03 PM
Distance/Time
Traveled:
0nm/0:30
Distance/Time
To Go:
Arrived

Flight Plot

Page will automatically refresh every two minutes.


Map Options




Map Legend


Flown Route
Filed Route
Departure Airport
Arrival Airport
Navaid (VOR, NDB)
Fix

Horizontal Profiles

Position Reports

Time Latitude Longitude Heading Altitude Ground
Speed
25-Mar-20 12:09 33.667574 -117.870938 37 59ft 0kts
25-Mar-20 12:10 33.667574 -117.870938 37 59ft 0kts
25-Mar-20 12:11 33.667574 -117.870938 37 59ft 0kts
25-Mar-20 12:12 33.667574 -117.870938 37 59ft 0kts
25-Mar-20 12:13 33.667574 -117.870938 37 59ft 0kts
25-Mar-20 12:14 33.667574 -117.870938 37 59ft 0kts
25-Mar-20 12:15 33.667574 -117.870938 37 59ft 0kts
25-Mar-20 12:17 33.667574 -117.870938 37 59ft 0kts
25-Mar-20 12:18 33.667574 -117.870938 37 59ft 0kts
25-Mar-20 12:19 33.667574 -117.870938 37 59ft 0kts
25-Mar-20 12:20 33.667574 -117.870938 37 59ft 0kts
25-Mar-20 12:21 33.667574 -117.870938 37 59ft 0kts
25-Mar-20 12:22 33.667574 -117.870938 37 59ft 0kts
25-Mar-20 12:23 33.667574 -117.870938 37 59ft 0kts
25-Mar-20 12:24 33.667574 -117.870938 37 59ft 0kts
25-Mar-20 12:25 33.667574 -117.870938 37 59ft 0kts
25-Mar-20 12:26 33.667574 -117.870938 37 59ft 0kts
25-Mar-20 12:27 33.667574 -117.870938 37 59ft 0kts
25-Mar-20 12:28 33.671289 -117.869178 40 59ft 21kts
25-Mar-20 12:29 33.673426 -117.867387 28 59ft 3kts
25-Mar-20 12:30 33.679433 -117.863849 46 59ft 7kts
25-Mar-20 12:31 33.679604 -117.863802 340 59ft 0kts
25-Mar-20 12:32 33.679765 -117.864405 208 59ft 0kts
25-Mar-20 12:33 33.675612 -117.867577 225 109ft 69kts
25-Mar-20 12:34 33.666152 -117.890341 251 928ft 85kts
25-Mar-20 12:34 33.659398 -117.912640 253 1637ft 85kts
25-Mar-20 12:36 33.650759 -117.945212 252 2509ft 88kts
25-Mar-20 12:37 33.647176 -117.973102 327 2960ft 107kts
25-Mar-20 12:37 33.669131 -117.961698 26 3159ft 109kts
25-Mar-20 12:38 33.695097 -117.942949 26 2993ft 106kts
25-Mar-20 12:40 33.723656 -117.922153 26 3006ft 104kts
25-Mar-20 12:40 33.744418 -117.906461 30 3029ft 106kts
25-Mar-20 12:41 33.769524 -117.887843 27 3066ft 106kts
25-Mar-20 12:42 33.794279 -117.867737 26 3067ft 107kts
25-Mar-20 12:43 33.819717 -117.849624 30 2984ft 105kts
25-Mar-20 12:44 33.843682 -117.831497 23 3000ft 97kts
25-Mar-20 12:45 33.867231 -117.815223 25 2985ft 97kts
25-Mar-20 12:46 33.890317 -117.798239 25 2990ft 97kts
25-Mar-20 12:47 33.913306 -117.781022 31 3001ft 97kts
25-Mar-20 12:48 33.918788 -117.751088 94 2973ft 103kts
25-Mar-20 12:49 33.903903 -117.727953 193 2945ft 100kts
25-Mar-20 12:50 33.877853 -117.733470 194 3100ft 92kts
25-Mar-20 12:51 33.858036 -117.751464 231 3121ft 92kts
25-Mar-20 12:52 33.835347 -117.766320 210 3077ft 83kts
25-Mar-20 12:53 33.816899 -117.777490 215 2841ft 70kts
25-Mar-20 12:54 33.800332 -117.789311 209 2877ft 70kts
25-Mar-20 12:55 33.783463 -117.800656 214 2755ft 69kts
25-Mar-20 12:56 33.766364 -117.811206 212 2278ft 68kts
25-Mar-20 12:57 33.749818 -117.821521 212 1724ft 66kts
25-Mar-20 12:58 33.733476 -117.832405 213 1172ft 66kts
25-Mar-20 12:59 33.717501 -117.842606 208 834ft 64kts
25-Mar-20 13:00 33.701607 -117.852647 207 515ft 64kts
25-Mar-20 13:01 33.685719 -117.862543 207 210ft 64kts
25-Mar-20 13:02 33.675607 -117.869238 269 59ft 8kts
25-Mar-20 13:03 33.676517 -117.871075 291 59ft 1kts

Navigation Log

Ident Type
Flight plan parsing failed, navigation log unavailable